sensor_id;sensor_type;location;lat;lon;timestamp;temperature;humidity
12152;DHT22;6139;51.274;7.128;2024-03-02T00:00:06;7.70;1.00
12152;DHT22;6139;51.274;7.128;2024-03-02T00:01:14;7.70;1.00
12152;DHT22;6139;51.274;7.128;2024-03-02T00:02:15;7.70;1.00
12152;DHT22;6139;51.274;7.128;2024-03-02T00:03:17;7.70;1.00
12152;DHT22;6139;51.274;7.128;2024-03-02T00:04:18;7.70;1.00
12152;DHT22;6139;51.274;7.128;2024-03-02T00:05:21;7.70;1.00
12152;DHT22;6139;51.274;7.128;2024-03-02T00:06:22;7.70;1.00
12152;DHT22;6139;51.274;7.128;2024-03-02T00:07:26;7.60;1.00
12152;DHT22;6139;51.274;7.128;2024-03-02T00:08:27;7.60;1.00
12152;DHT22;6139;51.274;7.128;2024-03-02T00:09:29;7.60;1.00
12152;DHT22;6139;51.274;7.128;2024-03-02T00:10:35;7.60;1.00
12152;DHT22;6139;51.274;7.128;2024-03-02T00:11:40;7.70;1.00
12152;DHT22;6139;51.274;7.128;2024-03-02T00:12:41;7.60;1.00
12152;DHT22;6139;51.274;7.128;2024-03-02T00:13:43;7.60;1.00
12152;DHT22;6139;51.274;7.128;2024-03-02T00:14:45;7.70;1.00
12152;DHT22;6139;51.274;7.128;2024-03-02T00:15:48;7.70;1.00
12152;DHT22;6139;51.274;7.128;2024-03-02T00:16:52;7.60;1.00
12152;DHT22;6139;51.274;7.128;2024-03-02T00:17:54;7.70;1.00
12152;DHT22;6139;51.274;7.128;2024-03-02T00:18:56;7.70;1.00
12152;DHT22;6139;51.274;7.128;2024-03-02T00:19:58;7.70;1.00
12152;DHT22;6139;51.274;7.128;2024-03-02T00:20:59;7.70;1.00
12152;DHT22;6139;51.274;7.128;2024-03-02T00:22:01;7.70;1.00
12152;DHT22;6139;51.274;7.128;2024-03-02T00:23:05;7.70;1.00
12152;DHT22;6139;51.274;7.128;2024-03-02T00:24:18;7.70;1.00
12152;DHT22;6139;51.274;7.128;2024-03-02T00:25:21;7.70;1.00
12152;DHT22;6139;51.274;7.128;2024-03-02T00:26:23;7.70;1.00
12152;DHT22;6139;51.274;7.128;2024-03-02T00:27:24;7.70;1.00
12152;DHT22;6139;51.274;7.128;2024-03-02T00:28:27;7.70;1.00
12152;DHT22;6139;51.274;7.128;2024-03-02T00:29:29;7.70;1.00
12152;DHT22;6139;51.274;7.128;2024-03-02T00:30:56;7.70;1.00
12152;DHT22;6139;51.274;7.128;2024-03-02T00:31:58;7.70;1.00
12152;DHT22;6139;51.274;7.128;2024-03-02T00:33:00;7.70;1.00
12152;DHT22;6139;51.274;7.128;2024-03-02T00:34:05;7.70;1.00
12152;DHT22;6139;51.274;7.128;2024-03-02T00:35:07;7.70;1.00
12152;DHT22;6139;51.274;7.128;2024-03-02T00:36:09;7.80;1.00
12152;DHT22;6139;51.274;7.128;2024-03-02T00:37:11;7.80;1.00
12152;DHT22;6139;51.274;7.128;2024-03-02T00:38:14;7.80;99.90
12152;DHT22;6139;51.274;7.128;2024-03-02T00:39:16;7.80;99.90
12152;DHT22;6139;51.274;7.128;2024-03-02T00:40:18;7.80;99.90
12152;DHT22;6139;51.274;7.128;2024-03-02T00:41:21;7.80;99.90
12152;DHT22;6139;51.274;7.128;2024-03-02T00:42:24;7.80;99.90
12152;DHT22;6139;51.274;7.128;2024-03-02T00:43:41;7.80;99.90
12152;DHT22;6139;51.274;7.128;2024-03-02T00:44:42;7.80;99.90
12152;DHT22;6139;51.274;7.128;2024-03-02T00:45:44;7.80;99.90
12152;DHT22;6139;51.274;7.128;2024-03-02T00:46:45;7.90;99.90
12152;DHT22;6139;51.274;7.128;2024-03-02T00:47:48;7.80;99.90
12152;DHT22;6139;51.274;7.128;2024-03-02T00:48:55;7.80;99.90
12152;DHT22;6139;51.274;7.128;2024-03-02T00:49:56;7.80;99.90
12152;DHT22;6139;51.274;7.128;2024-03-02T00:50:58;7.80;99.90
12152;DHT22;6139;51.274;7.128;2024-03-02T00:51:59;7.90;99.90
12152;DHT22;6139;51.274;7.128;2024-03-02T00:53:02;7.90;99.90
12152;DHT22;6139;51.274;7.128;2024-03-02T00:54:07;7.90;99.90
12152;DHT22;6139;51.274;7.128;2024-03-02T00:55:09;7.90;99.90
12152;DHT22;6139;51.274;7.128;2024-03-02T00:56:11;7.90;99.90
12152;DHT22;6139;51.274;7.128;2024-03-02T00:57:12;7.90;99.90
12152;DHT22;6139;51.274;7.128;2024-03-02T00:58:14;7.90;99.90
12152;DHT22;6139;51.274;7.128;2024-03-02T00:59:15;7.90;99.90
12152;DHT22;6139;51.274;7.128;2024-03-02T01:00:18;7.90;99.90
12152;DHT22;6139;51.274;7.128;2024-03-02T01:01:19;7.80;99.90
12152;DHT22;6139;51.274;7.128;2024-03-02T01:02:21;7.80;99.90
12152;DHT22;6139;51.274;7.128;2024-03-02T01:03:22;7.90;99.90
12152;DHT22;6139;51.274;7.128;2024-03-02T01:04:23;7.80;85.10
12152;DHT22;6139;51.274;7.128;2024-03-02T01:05:25;7.90;99.90
12152;DHT22;6139;51.274;7.128;2024-03-02T01:06:26;7.90;90.90
12152;DHT22;6139;51.274;7.128;2024-03-02T01:07:28;7.90;64.10
12152;DHT22;6139;51.274;7.128;2024-03-02T01:08:29;7.90;21.50
12152;DHT22;6139;51.274;7.128;2024-03-02T01:09:31;7.90;1.00
12152;DHT22;6139;51.274;7.128;2024-03-02T01:10:33;7.90;1.00
12152;DHT22;6139;51.274;7.128;2024-03-02T01:11:34;7.90;1.00
12152;DHT22;6139;51.274;7.128;2024-03-02T01:12:36;7.90;12.30
12152;DHT22;6139;51.274;7.128;2024-03-02T01:13:37;7.90;12.90
12152;DHT22;6139;51.274;7.128;2024-03-02T01:14:39;7.90;1.00
12152;DHT22;6139;51.274;7.128;2024-03-02T01:15:40;7.90;1.00
12152;DHT22;6139;51.274;7.128;2024-03-02T01:16:42;7.90;1.00
12152;DHT22;6139;51.274;7.128;2024-03-02T01:17:43;7.90;1.00
12152;DHT22;6139;51.274;7.128;2024-03-02T01:18:45;8.00;1.00
12152;DHT22;6139;51.274;7.128;2024-03-02T01:19:46;8.00;1.00
12152;DHT22;6139;51.274;7.128;2024-03-02T01:20:48;8.00;1.00
12152;DHT22;6139;51.274;7.128;2024-03-02T01:21:49;8.00;1.00
12152;DHT22;6139;51.274;7.128;2024-03-02T01:22:51;8.00;1.00
12152;DHT22;6139;51.274;7.128;2024-03-02T01:23:52;8.00;1.00
12152;DHT22;6139;51.274;7.128;2024-03-02T01:24:56;8.00;1.00
12152;DHT22;6139;51.274;7.128;2024-03-02T01:25:56;8.00;1.00
12152;DHT22;6139;51.274;7.128;2024-03-02T01:26:58;8.00;1.00
12152;DHT22;6139;51.274;7.128;2024-03-02T01:27:59;8.00;1.00
12152;DHT22;6139;51.274;7.128;2024-03-02T01:29:00;8.00;1.00
12152;DHT22;6139;51.274;7.128;2024-03-02T01:30:02;8.00;1.00
12152;DHT22;6139;51.274;7.128;2024-03-02T01:31:03;8.00;1.00
12152;DHT22;6139;51.274;7.128;2024-03-02T01:32:06;8.00;1.00
12152;DHT22;6139;51.274;7.128;2024-03-02T01:33:07;8.00;1.00
12152;DHT22;6139;51.274;7.128;2024-03-02T01:34:08;8.00;1.00
12152;DHT22;6139;51.274;7.128;2024-03-02T01:35:10;8.00;1.00
12152;DHT22;6139;51.274;7.128;2024-03-02T01:36:11;8.00;1.00
12152;DHT22;6139;51.274;7.128;2024-03-02T01:37:13;8.00;1.00
12152;DHT22;6139;51.274;7.128;2024-03-02T01:38:14;8.00;1.00
12152;DHT22;6139;51.274;7.128;2024-03-02T01:39:16;8.00;1.00
12152;DHT22;6139;51.274;7.128;2024-03-02T01:40:18;8.00;1.00
12152;DHT22;6139;51.274;7.128;2024-03-02T01:41:19;8.00;1.00
12152;DHT22;6139;51.274;7.128;2024-03-02T01:42:21;8.00;1.00
12152;DHT22;6139;51.274;7.128;2024-03-02T01:43:22;8.00;1.00
12152;DHT22;6139;51.274;7.128;2024-03-02T01:44:24;8.00;1.00
12152;DHT22;6139;51.274;7.128;2024-03-02T01:45:25;8.10;1.00
12152;DHT22;6139;51.274;7.128;2024-03-02T01:46:27;8.10;1.00
12152;DHT22;6139;51.274;7.128;2024-03-02T01:47:28;8.10;1.00
12152;DHT22;6139;51.274;7.128;2024-03-02T01:48:29;8.10;1.00
12152;DHT22;6139;51.274;7.128;2024-03-02T01:49:32;8.10;1.00
12152;DHT22;6139;51.274;7.128;2024-03-02T01:50:35;8.10;1.00
12152;DHT22;6139;51.274;7.128;2024-03-02T01:51:36;8.00;1.00
12152;DHT22;6139;51.274;7.128;2024-03-02T01:52:37;8.00;1.00
12152;DHT22;6139;51.274;7.128;2024-03-02T01:53:38;8.00;1.00
12152;DHT22;6139;51.274;7.128;2024-03-02T01:54:40;8.00;1.00
12152;DHT22;6139;51.274;7.128;2024-03-02T01:55:43;7.90;1.00
12152;DHT22;6139;51.274;7.128;2024-03-02T01:56:44;7.90;1.00
12152;DHT22;6139;51.274;7.128;2024-03-02T01:57:46;7.90;1.00
12152;DHT22;6139;51.274;7.128;2024-03-02T01:58:48;7.90;1.00
12152;DHT22;6139;51.274;7.128;2024-03-02T01:59:50;7.90;1.00
12152;DHT22;6139;51.274;7.128;2024-03-02T02:00:51;7.90;1.00
12152;DHT22;6139;51.274;7.128;2024-03-02T02:01:53;7.90;1.00
12152;DHT22;6139;51.274;7.128;2024-03-02T02:02:54;8.00;1.00
12152;DHT22;6139;51.274;7.128;2024-03-02T02:03:56;7.90;1.00
12152;DHT22;6139;51.274;7.128;2024-03-02T02:04:57;7.90;1.00
12152;DHT22;6139;51.274;7.128;2024-03-02T02:05:58;7.90;1.00
12152;DHT22;6139;51.274;7.128;2024-03-02T02:07:00;8.00;1.00
12152;DHT22;6139;51.274;7.128;2024-03-02T02:08:01;7.90;1.00
12152;DHT22;6139;51.274;7.128;2024-03-02T02:09:03;7.90;1.00
12152;DHT22;6139;51.274;7.128;2024-03-02T02:10:05;7.90;1.00
12152;DHT22;6139;51.274;7.128;2024-03-02T02:11:08;7.90;1.00
12152;DHT22;6139;51.274;7.128;2024-03-02T02:12:10;7.90;1.00
12152;DHT22;6139;51.274;7.128;2024-03-02T02:13:11;7.90;1.00
12152;DHT22;6139;51.274;7.128;2024-03-02T02:14:13;7.90;1.00
12152;DHT22;6139;51.274;7.128;2024-03-02T02:15:27;7.80;1.00
12152;DHT22;6139;51.274;7.128;2024-03-02T02:16:29;7.80;1.00
12152;DHT22;6139;51.274;7.128;2024-03-02T02:17:30;7.80;1.00
12152;DHT22;6139;51.274;7.128;2024-03-02T02:18:31;7.80;1.00
12152;DHT22;6139;51.274;7.128;2024-03-02T02:19:33;7.90;1.00
12152;DHT22;6139;51.274;7.128;2024-03-02T02:20:34;7.90;1.00
12152;DHT22;6139;51.274;7.128;2024-03-02T02:21:38;7.80;1.00
12152;DHT22;6139;51.274;7.128;2024-03-02T02:22:38;7.80;1.00
12152;DHT22;6139;51.274;7.128;2024-03-02T02:23:40;7.80;1.00
12152;DHT22;6139;51.274;7.128;2024-03-02T02:24:46;7.80;1.00
12152;DHT22;6139;51.274;7.128;2024-03-02T02:25:47;7.80;1.00
12152;DHT22;6139;51.274;7.128;2024-03-02T02:26:49;7.80;1.00
12152;DHT22;6139;51.274;7.128;2024-03-02T02:27:50;7.80;1.00
12152;DHT22;6139;51.274;7.128;2024-03-02T02:28:51;7.80;1.00
12152;DHT22;6139;51.274;7.128;2024-03-02T02:29:53;7.90;1.00
12152;DHT22;6139;51.274;7.128;2024-03-02T02:30:56;7.80;1.00
12152;DHT22;6139;51.274;7.128;2024-03-02T02:32:00;7.90;1.00
12152;DHT22;6139;51.274;7.128;2024-03-02T02:33:01;7.90;1.00
12152;DHT22;6139;51.274;7.128;2024-03-02T02:34:03;7.90;1.00
12152;DHT22;6139;51.274;7.128;2024-03-02T02:35:05;7.90;1.00
12152;DHT22;6139;51.274;7.128;2024-03-02T02:36:06;7.90;1.00
12152;DHT22;6139;51.274;7.128;2024-03-02T02:37:10;7.90;1.00
12152;DHT22;6139;51.274;7.128;2024-03-02T02:38:11;7.90;1.00
12152;DHT22;6139;51.274;7.128;2024-03-02T02:39:15;7.80;1.00
12152;DHT22;6139;51.274;7.128;2024-03-02T02:40:18;7.90;1.00
12152;DHT22;6139;51.274;7.128;2024-03-02T02:41:19;7.90;1.00
12152;DHT22;6139;51.274;7.128;2024-03-02T02:42:21;7.90;1.00
12152;DHT22;6139;51.274;7.128;2024-03-02T02:43:22;7.90;1.00
12152;DHT22;6139;51.274;7.128;2024-03-02T02:44:24;7.90;1.00
12152;DHT22;6139;51.274;7.128;2024-03-02T02:45:25;8.00;1.00
12152;DHT22;6139;51.274;7.128;2024-03-02T02:46:27;8.00;1.00
12152;DHT22;6139;51.274;7.128;2024-03-02T02:47:28;8.00;1.00
12152;DHT22;6139;51.274;7.128;2024-03-02T02:48:30;8.00;1.00
12152;DHT22;6139;51.274;7.128;2024-03-02T02:49:31;8.00;1.00
12152;DHT22;6139;51.274;7.128;2024-03-02T02:50:33;8.00;1.00
12152;DHT22;6139;51.274;7.128;2024-03-02T02:51:34;7.90;1.00
12152;DHT22;6139;51.274;7.128;2024-03-02T02:52:38;7.90;1.00
12152;DHT22;6139;51.274;7.128;2024-03-02T02:53:40;7.90;1.00
12152;DHT22;6139;51.274;7.128;2024-03-02T02:54:42;8.00;1.00
12152;DHT22;6139;51.274;7.128;2024-03-02T02:55:43;7.90;1.00
12152;DHT22;6139;51.274;7.128;2024-03-02T02:56:45;8.00;1.00
12152;DHT22;6139;51.274;7.128;2024-03-02T02:57:46;8.00;1.00
12152;DHT22;6139;51.274;7.128;2024-03-02T02:58:48;8.00;1.00
12152;DHT22;6139;51.274;7.128;2024-03-02T02:59:49;8.00;1.00
12152;DHT22;6139;51.274;7.128;2024-03-02T03:00:51;8.10;1.00
12152;DHT22;6139;51.274;7.128;2024-03-02T03:01:52;8.10;1.00
12152;DHT22;6139;51.274;7.128;2024-03-02T03:02:54;8.00;1.00
12152;DHT22;6139;51.274;7.128;2024-03-02T03:03:55;8.00;1.00
12152;DHT22;6139;51.274;7.128;2024-03-02T03:04:57;8.00;1.00
12152;DHT22;6139;51.274;7.128;2024-03-02T03:05:58;8.00;1.00
12152;DHT22;6139;51.274;7.128;2024-03-02T03:06:59;8.00;1.00
12152;DHT22;6139;51.274;7.128;2024-03-02T03:08:03;8.00;1.00
12152;DHT22;6139;51.274;7.128;2024-03-02T03:09:04;8.00;1.00
12152;DHT22;6139;51.274;7.128;2024-03-02T03:10:07;8.00;1.00
12152;DHT22;6139;51.274;7.128;2024-03-02T03:11:08;8.00;1.00
12152;DHT22;6139;51.274;7.128;2024-03-02T03:12:10;8.00;1.00
12152;DHT22;6139;51.274;7.128;2024-03-02T03:13:11;8.00;1.00
12152;DHT22;6139;51.274;7.128;2024-03-02T03:14:12;8.00;1.00
12152;DHT22;6139;51.274;7.128;2024-03-02T03:15:14;8.00;1.00
12152;DHT22;6139;51.274;7.128;2024-03-02T03:16:16;8.00;1.00
12152;DHT22;6139;51.274;7.128;2024-03-02T03:17:18;8.00;1.00
12152;DHT22;6139;51.274;7.128;2024-03-02T03:18:19;8.00;1.00
12152;DHT22;6139;51.274;7.128;2024-03-02T03:19:20;8.00;1.00
12152;DHT22;6139;51.274;7.128;2024-03-02T03:20:22;8.00;1.00
12152;DHT22;6139;51.274;7.128;2024-03-02T03:21:24;8.00;1.00
12152;DHT22;6139;51.274;7.128;2024-03-02T03:22:26;8.00;1.00
12152;DHT22;6139;51.274;7.128;2024-03-02T03:23:28;8.00;1.00
12152;DHT22;6139;51.274;7.128;2024-03-02T03:24:30;8.00;1.00
12152;DHT22;6139;51.274;7.128;2024-03-02T03:25:31;8.00;1.00
12152;DHT22;6139;51.274;7.128;2024-03-02T03:26:35;8.00;1.00
12152;DHT22;6139;51.274;7.128;2024-03-02T03:27:37;8.00;1.00
12152;DHT22;6139;51.274;7.128;2024-03-02T03:28:39;8.00;1.00
12152;DHT22;6139;51.274;7.128;2024-03-02T03:29:40;8.00;1.00
12152;DHT22;6139;51.274;7.128;2024-03-02T03:30:40;8.00;1.00
12152;DHT22;6139;51.274;7.128;2024-03-02T03:31:42;8.00;1.00
12152;DHT22;6139;51.274;7.128;2024-03-02T03:32:43;8.00;1.00
12152;DHT22;6139;51.274;7.128;2024-03-02T03:33:46;8.00;1.00
12152;DHT22;6139;51.274;7.128;2024-03-02T03:34:46;8.00;1.00
12152;DHT22;6139;51.274;7.128;2024-03-02T03:35:49;8.00;1.00
12152;DHT22;6139;51.274;7.128;2024-03-02T03:36:50;8.00;1.00
12152;DHT22;6139;51.274;7.128;2024-03-02T03:37:52;8.00;1.00
12152;DHT22;6139;51.274;7.128;2024-03-02T03:38:54;8.00;1.00
12152;DHT22;6139;51.274;7.128;2024-03-02T03:39:56;7.90;1.00
12152;DHT22;6139;51.274;7.128;2024-03-02T03:40:57;8.00;1.00
12152;DHT22;6139;51.274;7.128;2024-03-02T03:41:59;8.00;1.00
12152;DHT22;6139;51.274;7.128;2024-03-02T03:43:00;8.00;1.00
12152;DHT22;6139;51.274;7.128;2024-03-02T03:44:02;8.00;1.00
12152;DHT22;6139;51.274;7.128;2024-03-02T03:45:03;8.00;1.00
12152;DHT22;6139;51.274;7.128;2024-03-02T03:46:04;8.00;1.00
12152;DHT22;6139;51.274;7.128;2024-03-02T03:47:06;8.00;1.00
12152;DHT22;6139;51.274;7.128;2024-03-02T03:48:07;8.00;1.00
12152;DHT22;6139;51.274;7.128;2024-03-02T03:49:09;8.00;1.00
12152;DHT22;6139;51.274;7.128;2024-03-02T03:50:11;8.00;1.00
12152;DHT22;6139;51.274;7.128;2024-03-02T03:51:13;8.00;1.00
12152;DHT22;6139;51.274;7.128;2024-03-02T03:52:15;8.00;1.00
12152;DHT22;6139;51.274;7.128;2024-03-02T03:53:15;7.90;1.00
12152;DHT22;6139;51.274;7.128;2024-03-02T03:54:19;7.90;1.00
12152;DHT22;6139;51.274;7.128;2024-03-02T03:55:20;7.90;1.00
12152;DHT22;6139;51.274;7.128;2024-03-02T03:56:22;7.90;1.00
12152;DHT22;6139;51.274;7.128;2024-03-02T03:57:23;7.90;98.20
12152;DHT22;6139;51.274;7.128;2024-03-02T03:58:24;7.90;99.90
12152;DHT22;6139;51.274;7.128;2024-03-02T03:59:25;7.90;1.00
12152;DHT22;6139;51.274;7.128;2024-03-02T04:00:27;7.90;99.90
12152;DHT22;6139;51.274;7.128;2024-03-02T04:01:28;7.90;99.90
12152;DHT22;6139;51.274;7.128;2024-03-02T04:02:30;7.90;99.90
12152;DHT22;6139;51.274;7.128;2024-03-02T04:03:31;7.90;1.00
12152;DHT22;6139;51.274;7.128;2024-03-02T04:04:33;7.80;33.80
12152;DHT22;6139;51.274;7.128;2024-03-02T04:05:34;7.90;1.00
12152;DHT22;6139;51.274;7.128;2024-03-02T04:06:36;7.80;1.00
12152;DHT22;6139;51.274;7.128;2024-03-02T04:07:37;7.80;1.00
12152;DHT22;6139;51.274;7.128;2024-03-02T04:08:43;7.80;1.00
12152;DHT22;6139;51.274;7.128;2024-03-02T04:09:45;7.80;36.10
12152;DHT22;6139;51.274;7.128;2024-03-02T04:10:46;7.80;99.90
12152;DHT22;6139;51.274;7.128;2024-03-02T04:11:48;7.80;99.90
12152;DHT22;6139;51.274;7.128;2024-03-02T04:12:49;7.90;99.90
12152;DHT22;6139;51.274;7.128;2024-03-02T04:13:52;7.90;1.00
12152;DHT22;6139;51.274;7.128;2024-03-02T04:14:53;7.90;1.00
12152;DHT22;6139;51.274;7.128;2024-03-02T04:15:54;7.90;99.90
12152;DHT22;6139;51.274;7.128;2024-03-02T04:16:55;7.90;1.00
12152;DHT22;6139;51.274;7.128;2024-03-02T04:17:56;7.90;1.00
12152;DHT22;6139;51.274;7.128;2024-03-02T04:18:58;7.90;1.00
12152;DHT22;6139;51.274;7.128;2024-03-02T04:19:59;7.90;1.00
12152;DHT22;6139;51.274;7.128;2024-03-02T04:21:00;7.90;1.00
12152;DHT22;6139;51.274;7.128;2024-03-02T04:22:02;7.90;1.00
12152;DHT22;6139;51.274;7.128;2024-03-02T04:23:04;7.90;1.00
12152;DHT22;6139;51.274;7.128;2024-03-02T04:24:06;7.90;1.00
12152;DHT22;6139;51.274;7.128;2024-03-02T04:25:08;7.90;1.00
12152;DHT22;6139;51.274;7.128;2024-03-02T04:26:11;7.80;1.00
12152;DHT22;6139;51.274;7.128;2024-03-02T04:27:12;7.80;1.00
12152;DHT22;6139;51.274;7.128;2024-03-02T04:28:13;7.80;1.00
12152;DHT22;6139;51.274;7.128;2024-03-02T04:29:15;7.80;1.00
12152;DHT22;6139;51.274;7.128;2024-03-02T04:30:16;7.80;1.00
12152;DHT22;6139;51.274;7.128;2024-03-02T04:31:17;7.80;1.00
12152;DHT22;6139;51.274;7.128;2024-03-02T04:32:19;7.80;1.00
12152;DHT22;6139;51.274;7.128;2024-03-02T04:33:21;7.80;1.00
12152;DHT22;6139;51.274;7.128;2024-03-02T04:34:22;7.80;1.00
12152;DHT22;6139;51.274;7.128;2024-03-02T04:35:24;7.80;1.00
12152;DHT22;6139;51.274;7.128;2024-03-02T04:36:26;7.80;1.00
12152;DHT22;6139;51.274;7.128;2024-03-02T04:37:28;7.80;1.00
12152;DHT22;6139;51.274;7.128;2024-03-02T04:38:29;7.80;1.00
12152;DHT22;6139;51.274;7.128;2024-03-02T04:39:31;7.80;1.00
12152;DHT22;6139;51.274;7.128;2024-03-02T04:40:33;7.80;1.00
12152;DHT22;6139;51.274;7.128;2024-03-02T04:41:35;7.80;1.00
12152;DHT22;6139;51.274;7.128;2024-03-02T04:42:36;7.80;1.00
12152;DHT22;6139;51.274;7.128;2024-03-02T04:43:38;7.80;1.00
12152;DHT22;6139;51.274;7.128;2024-03-02T04:44:39;7.70;1.00
12152;DHT22;6139;51.274;7.128;2024-03-02T04:45:40;7.70;1.00
12152;DHT22;6139;51.274;7.128;2024-03-02T04:46:43;7.70;1.00
12152;DHT22;6139;51.274;7.128;2024-03-02T04:47:44;7.70;1.00
12152;DHT22;6139;51.274;7.128;2024-03-02T04:48:46;7.70;1.00
12152;DHT22;6139;51.274;7.128;2024-03-02T04:49:47;7.70;4.60
12152;DHT22;6139;51.274;7.128;2024-03-02T04:50:48;7.70;1.00
12152;DHT22;6139;51.274;7.128;2024-03-02T04:51:50;7.60;1.00
12152;DHT22;6139;51.274;7.128;2024-03-02T04:52:51;7.60;1.00
12152;DHT22;6139;51.274;7.128;2024-03-02T04:53:52;7.60;1.00
12152;DHT22;6139;51.274;7.128;2024-03-02T04:54:53;7.60;1.00
12152;DHT22;6139;51.274;7.128;2024-03-02T04:56:14;7.60;16.80
12152;DHT22;6139;51.274;7.128;2024-03-02T04:57:40;7.60;1.00
12152;DHT22;6139;51.274;7.128;2024-03-02T04:58:41;7.60;1.00
12152;DHT22;6139;51.274;7.128;2024-03-02T04:59:42;7.60;1.00
12152;DHT22;6139;51.274;7.128;2024-03-02T05:00:44;7.60;1.00
12152;DHT22;6139;51.274;7.128;2024-03-02T05:01:47;7.60;57.10
12152;DHT22;6139;51.274;7.128;2024-03-02T05:02:49;7.50;1.00
12152;DHT22;6139;51.274;7.128;2024-03-02T05:03:50;7.50;43.40
12152;DHT22;6139;51.274;7.128;2024-03-02T05:04:52;7.50;99.90
12152;DHT22;6139;51.274;7.128;2024-03-02T05:05:52;7.50;99.90
12152;DHT22;6139;51.274;7.128;2024-03-02T05:06:55;7.50;99.90
12152;DHT22;6139;51.274;7.128;2024-03-02T05:07:58;7.50;99.90
12152;DHT22;6139;51.274;7.128;2024-03-02T05:09:00;7.50;99.90
12152;DHT22;6139;51.274;7.128;2024-03-02T05:10:01;7.50;99.90
12152;DHT22;6139;51.274;7.128;2024-03-02T05:11:02;7.40;99.90
12152;DHT22;6139;51.274;7.128;2024-03-02T05:12:19;7.40;99.90
12152;DHT22;6139;51.274;7.128;2024-03-02T05:13:47;7.40;99.90
12152;DHT22;6139;51.274;7.128;2024-03-02T05:14:48;7.40;99.90
12152;DHT22;6139;51.274;7.128;2024-03-02T05:15:50;7.40;99.90
12152;DHT22;6139;51.274;7.128;2024-03-02T05:16:52;7.30;99.90
12152;DHT22;6139;51.274;7.128;2024-03-02T05:17:53;7.30;1.00
12152;DHT22;6139;51.274;7.128;2024-03-02T05:18:54;7.40;1.00
12152;DHT22;6139;51.274;7.128;2024-03-02T05:19:56;7.30;99.90
12152;DHT22;6139;51.274;7.128;2024-03-02T05:20:57;7.30;1.00
12152;DHT22;6139;51.274;7.128;2024-03-02T05:21:59;7.30;1.00
12152;DHT22;6139;51.274;7.128;2024-03-02T05:23:00;7.30;1.00
12152;DHT22;6139;51.274;7.128;2024-03-02T05:24:02;7.30;1.00
12152;DHT22;6139;51.274;7.128;2024-03-02T05:25:03;7.30;99.90
12152;DHT22;6139;51.274;7.128;2024-03-02T05:26:05;7.30;1.00
12152;DHT22;6139;51.274;7.128;2024-03-02T05:27:07;7.30;1.00
12152;DHT22;6139;51.274;7.128;2024-03-02T05:28:10;7.20;1.00
12152;DHT22;6139;51.274;7.128;2024-03-02T05:29:11;7.30;1.00
12152;DHT22;6139;51.274;7.128;2024-03-02T05:30:13;7.30;1.00
12152;DHT22;6139;51.274;7.128;2024-03-02T05:31:16;7.30;1.00
12152;DHT22;6139;51.274;7.128;2024-03-02T05:32:18;7.30;1.00
12152;DHT22;6139;51.274;7.128;2024-03-02T05:33:19;7.30;1.00
12152;DHT22;6139;51.274;7.128;2024-03-02T05:34:23;7.30;1.00
12152;DHT22;6139;51.274;7.128;2024-03-02T05:35:24;7.30;1.00
12152;DHT22;6139;51.274;7.128;2024-03-02T05:36:25;7.30;1.00
12152;DHT22;6139;51.274;7.128;2024-03-02T05:37:26;7.40;1.00
12152;DHT22;6139;51.274;7.128;2024-03-02T05:38:29;7.40;1.00
12152;DHT22;6139;51.274;7.128;2024-03-02T05:39:30;7.40;99.90
12152;DHT22;6139;51.274;7.128;2024-03-02T05:40:32;7.40;99.90
12152;DHT22;6139;51.274;7.128;2024-03-02T05:41:33;7.40;99.90
12152;DHT22;6139;51.274;7.128;2024-03-02T05:42:34;7.30;99.90
12152;DHT22;6139;51.274;7.128;2024-03-02T05:43:37;7.30;99.90
12152;DHT22;6139;51.274;7.128;2024-03-02T05:44:38;7.20;1.00
12152;DHT22;6139;51.274;7.128;2024-03-02T05:45:40;7.20;1.00
12152;DHT22;6139;51.274;7.128;2024-03-02T05:46:41;7.10;1.00
12152;DHT22;6139;51.274;7.128;2024-03-02T05:47:43;7.10;1.00
12152;DHT22;6139;51.274;7.128;2024-03-02T05:48:44;7.00;1.00
12152;DHT22;6139;51.274;7.128;2024-03-02T05:49:46;7.00;1.00
12152;DHT22;6139;51.274;7.128;2024-03-02T05:50:47;7.00;1.00
12152;DHT22;6139;51.274;7.128;2024-03-02T05:51:49;7.00;1.00
12152;DHT22;6139;51.274;7.128;2024-03-02T05:52:50;7.00;1.00
12152;DHT22;6139;51.274;7.128;2024-03-02T05:53:52;6.90;1.00
12152;DHT22;6139;51.274;7.128;2024-03-02T05:54:53;6.90;1.00
12152;DHT22;6139;51.274;7.128;2024-03-02T05:55:55;6.90;1.00
12152;DHT22;6139;51.274;7.128;2024-03-02T05:56:57;6.80;99.90
12152;DHT22;6139;51.274;7.128;2024-03-02T05:58:17;6.80;94.50
12152;DHT22;6139;51.274;7.128;2024-03-02T05:59:27;6.80;62.80
12152;DHT22;6139;51.274;7.128;2024-03-02T06:00:29;6.80;99.90
12152;DHT22;6139;51.274;7.128;2024-03-02T06:01:31;6.80;99.90
12152;DHT22;6139;51.274;7.128;2024-03-02T06:02:33;6.80;99.90
12152;DHT22;6139;51.274;7.128;2024-03-02T06:03:35;6.90;99.90
12152;DHT22;6139;51.274;7.128;2024-03-02T06:04:37;6.80;99.90
12152;DHT22;6139;51.274;7.128;2024-03-02T06:05:38;6.80;99.90
12152;DHT22;6139;51.274;7.128;2024-03-02T06:06:39;6.80;99.90
12152;DHT22;6139;51.274;7.128;2024-03-02T06:07:42;6.80;99.90
12152;DHT22;6139;51.274;7.128;2024-03-02T06:08:43;6.80;99.90
12152;DHT22;6139;51.274;7.128;2024-03-02T06:09:45;6.80;99.90
12152;DHT22;6139;51.274;7.128;2024-03-02T06:10:49;6.80;99.90
12152;DHT22;6139;51.274;7.128;2024-03-02T06:11:51;6.70;99.90
12152;DHT22;6139;51.274;7.128;2024-03-02T06:12:52;6.80;99.90
12152;DHT22;6139;51.274;7.128;2024-03-02T06:13:53;6.80;1.00
12152;DHT22;6139;51.274;7.128;2024-03-02T06:14:56;6.70;99.90
12152;DHT22;6139;51.274;7.128;2024-03-02T06:15:58;6.70;1.00
12152;DHT22;6139;51.274;7.128;2024-03-02T06:16:59;6.80;1.00
12152;DHT22;6139;51.274;7.128;2024-03-02T06:18:00;6.80;99.90
12152;DHT22;6139;51.274;7.128;2024-03-02T06:19:02;6.80;1.00
12152;DHT22;6139;51.274;7.128;2024-03-02T06:20:04;6.70;1.00
12152;DHT22;6139;51.274;7.128;2024-03-02T06:21:08;6.70;1.00
12152;DHT22;6139;51.274;7.128;2024-03-02T06:22:09;6.70;1.00
12152;DHT22;6139;51.274;7.128;2024-03-02T06:23:11;6.70;1.00
12152;DHT22;6139;51.274;7.128;2024-03-02T06:24:12;6.70;1.00
12152;DHT22;6139;51.274;7.128;2024-03-02T06:25:14;6.70;1.00
12152;DHT22;6139;51.274;7.128;2024-03-02T06:26:15;6.70;1.00
12152;DHT22;6139;51.274;7.128;2024-03-02T06:27:17;6.70;1.00
12152;DHT22;6139;51.274;7.128;2024-03-02T06:28:18;6.70;1.00
12152;DHT22;6139;51.274;7.128;2024-03-02T06:29:20;6.70;1.00
12152;DHT22;6139;51.274;7.128;2024-03-02T06:30:23;6.70;1.00
12152;DHT22;6139;51.274;7.128;2024-03-02T06:31:25;6.70;1.00
12152;DHT22;6139;51.274;7.128;2024-03-02T06:32:26;6.70;1.00
12152;DHT22;6139;51.274;7.128;2024-03-02T06:33:28;6.70;1.00
12152;DHT22;6139;51.274;7.128;2024-03-02T06:34:29;6.70;1.00
12152;DHT22;6139;51.274;7.128;2024-03-02T06:35:31;6.60;1.00
12152;DHT22;6139;51.274;7.128;2024-03-02T06:36:32;6.60;1.00
12152;DHT22;6139;51.274;7.128;2024-03-02T06:37:34;6.60;1.00
12152;DHT22;6139;51.274;7.128;2024-03-02T06:38:35;6.60;1.00
12152;DHT22;6139;51.274;7.128;2024-03-02T06:39:37;6.50;39.20
12152;DHT22;6139;51.274;7.128;2024-03-02T06:40:38;6.50;99.90
12152;DHT22;6139;51.274;7.128;2024-03-02T06:41:40;6.50;99.90
12152;DHT22;6139;51.274;7.128;2024-03-02T06:42:43;6.50;99.90
12152;DHT22;6139;51.274;7.128;2024-03-02T06:43:44;6.50;99.90
12152;DHT22;6139;51.274;7.128;2024-03-02T06:44:46;6.50;99.90
12152;DHT22;6139;51.274;7.128;2024-03-02T06:45:48;6.50;99.90
12152;DHT22;6139;51.274;7.128;2024-03-02T06:46:50;6.60;99.90
12152;DHT22;6139;51.274;7.128;2024-03-02T06:47:51;6.50;99.90
12152;DHT22;6139;51.274;7.128;2024-03-02T06:48:53;6.50;99.90
12152;DHT22;6139;51.274;7.128;2024-03-02T06:49:54;6.60;99.90
12152;DHT22;6139;51.274;7.128;2024-03-02T06:50:56;6.60;99.90